Terminal Aerodrome Forecast
Issued by NWS Memphis, TN

Home | Current Version | Previous Version | Text Only | Print | Product List | Glossary On
Versions: 1 2 3 4 5 6 7 8 9 10 11 12 13 14 15 16 17 18 19 20 21
000
FTUS44 KMEG 270530
TAFMKL
TAF
KMKL 270530Z 2706/2806 16003KT P6SM BKN250
     FM271300 19010G20KT P6SM SCT020 BKN100
     FM271600 20012G22KT 6SM SHRA VCTS BKN020CB OVC150
      TEMPO 2717/2720 3SM TSRA OVC015CB
     FM272100 20011G22KT 6SM SHRA BKN025 OVC050
     FM280400 22010KT P6SM VCSH SCT020 BKN050=

USA.gov is the U.S. government's official web portal to all federal, state and local government web resources and services.